sensor_id;sensor_type;location;lat;lon;timestamp;pressure;altitude;pressure_sealevel;temperature;humidity
27304;BME280;14791;52.392;13.092;2023-05-22T00:00:11;101313.99;;;26.19;28.57
27304;BME280;14791;52.392;13.092;2023-05-22T00:02:43;101316.78;;;26.15;28.61
27304;BME280;14791;52.392;13.092;2023-05-22T00:05:13;101311.66;;;26.12;28.64
27304;BME280;14791;52.392;13.092;2023-05-22T00:07:44;101305.70;;;26.08;28.67
27304;BME280;14791;52.392;13.092;2023-05-22T00:10:13;101307.27;;;26.02;28.72
27304;BME280;14791;52.392;13.092;2023-05-22T00:12:42;101304.91;;;25.99;28.76
27304;BME280;14791;52.392;13.092;2023-05-22T00:15:11;101298.96;;;25.96;28.82
27304;BME280;14791;52.392;13.092;2023-05-22T00:17:40;101302.56;;;25.92;28.85
27304;BME280;14791;52.392;13.092;2023-05-22T00:20:10;101294.37;;;25.88;28.87
27304;BME280;14791;52.392;13.092;2023-05-22T00:22:39;101291.66;;;25.84;28.90
27304;BME280;14791;52.392;13.092;2023-05-22T00:25:09;101295.93;;;25.82;28.93
27304;BME280;14791;52.392;13.092;2023-05-22T00:27:38;101294.94;;;25.79;28.96
27304;BME280;14791;52.392;13.092;2023-05-22T00:30:08;101287.94;;;25.77;29.01
27304;BME280;14791;52.392;13.092;2023-05-22T00:32:37;101285.22;;;25.73;29.04
27304;BME280;14791;52.392;13.092;2023-05-22T00:35:07;101285.59;;;25.70;29.07
27304;BME280;14791;52.392;13.092;2023-05-22T00:37:36;101289.02;;;25.67;29.10
27304;BME280;14791;52.392;13.092;2023-05-22T00:40:06;101282.55;;;25.64;29.17
27304;BME280;14791;52.392;13.092;2023-05-22T00:42:36;101286.82;;;25.63;29.19
27304;BME280;14791;52.392;13.092;2023-05-22T00:45:05;101284.26;;;25.61;29.27
27304;BME280;14791;52.392;13.092;2023-05-22T00:47:35;101283.94;;;25.60;29.31
27304;BME280;14791;52.392;13.092;2023-05-22T00:50:05;101282.58;;;25.56;29.33
27304;BME280;14791;52.392;13.092;2023-05-22T00:52:37;101281.06;;;25.54;29.37
27304;BME280;14791;52.392;13.092;2023-05-22T00:55:08;101278.49;;;25.52;29.37
27304;BME280;14791;52.392;13.092;2023-05-22T00:57:37;101278.86;;;25.49;29.43
27304;BME280;14791;52.392;13.092;2023-05-22T01:00:12;101279.91;;;25.48;29.45
27304;BME280;14791;52.392;13.092;2023-05-22T01:02:41;101277.19;;;25.44;29.51
27304;BME280;14791;52.392;13.092;2023-05-22T01:05:11;101276.67;;;25.40;29.55
27304;BME280;14791;52.392;13.092;2023-05-22T01:07:43;101276.52;;;25.38;29.57
27304;BME280;14791;52.392;13.092;2023-05-22T01:10:12;101276.05;;;25.34;29.62
27304;BME280;14791;52.392;13.092;2023-05-22T01:18:26;101274.22;;;25.18;29.68
27304;BME280;14791;52.392;13.092;2023-05-22T01:21:17;101273.20;;;25.11;29.76
27304;BME280;14791;52.392;13.092;2023-05-22T01:32:32;101266.14;;;24.77;30.01
27304;BME280;14791;52.392;13.092;2023-05-22T01:35:05;101269.59;;;24.71;30.12
27304;BME280;14791;52.392;13.092;2023-05-22T01:37:36;101267.02;;;24.70;30.12
27304;BME280;14791;52.392;13.092;2023-05-22T01:40:07;101266.86;;;24.67;30.18
27304;BME280;14791;52.392;13.092;2023-05-22T01:42:38;101269.75;;;24.66;30.20
27304;BME280;14791;52.392;13.092;2023-05-22T01:45:09;101260.03;;;24.63;30.25
27304;BME280;14791;52.392;13.092;2023-05-22T01:47:39;101266.17;;;24.61;30.28
27304;BME280;14791;52.392;13.092;2023-05-22T01:50:08;101264.13;;;24.59;30.22
27304;BME280;14791;52.392;13.092;2023-05-22T01:55:17;101269.09;;;24.55;30.32
27304;BME280;14791;52.392;13.092;2023-05-22T02:00:38;101262.78;;;24.47;30.42
27304;BME280;14791;52.392;13.092;2023-05-22T02:03:19;101274.03;;;24.44;30.41
27304;BME280;14791;52.392;13.092;2023-05-22T02:05:53;101274.38;;;24.40;30.47
27304;BME280;14791;52.392;13.092;2023-05-22T02:08:23;101276.10;;;24.37;30.52
27304;BME280;14791;52.392;13.092;2023-05-22T02:10:54;101270.80;;;24.36;30.50
27304;BME280;14791;52.392;13.092;2023-05-22T02:13:24;101273.17;;;24.35;30.58
27304;BME280;14791;52.392;13.092;2023-05-22T02:15:56;101264.33;;;24.33;30.61
27304;BME280;14791;52.392;13.092;2023-05-22T02:18:28;101268.91;;;24.32;30.66
27304;BME280;14791;52.392;13.092;2023-05-22T02:20:58;101268.59;;;24.31;30.66
27304;BME280;14791;52.392;13.092;2023-05-22T02:23:31;101264.48;;;24.27;30.68
27304;BME280;14791;52.392;13.092;2023-05-22T02:26:00;101266.53;;;24.25;30.71
27304;BME280;14791;52.392;13.092;2023-05-22T02:28:29;101263.99;;;24.24;30.75
27304;BME280;14791;52.392;13.092;2023-05-22T02:30:58;101263.30;;;24.22;30.76
27304;BME280;14791;52.392;13.092;2023-05-22T02:33:27;101267.56;;;24.20;30.80
27304;BME280;14791;52.392;13.092;2023-05-22T02:35:56;101263.30;;;24.17;30.83
27304;BME280;14791;52.392;13.092;2023-05-22T02:38:25;101262.80;;;24.14;30.87
27304;BME280;14791;52.392;13.092;2023-05-22T02:40:55;101262.12;;;24.12;30.89
27304;BME280;14791;52.392;13.092;2023-05-22T02:43:24;101258.19;;;24.10;30.92
27304;BME280;14791;52.392;13.092;2023-05-22T02:45:53;101256.65;;;24.08;30.95
27304;BME280;14791;52.392;13.092;2023-05-22T02:48:22;101252.39;;;24.05;30.97
27304;BME280;14791;52.392;13.092;2023-05-22T02:50:52;101252.55;;;24.04;31.02
27304;BME280;14791;52.392;13.092;2023-05-22T02:53:21;101257.83;;;24.01;31.00
27304;BME280;14791;52.392;13.092;2023-05-22T02:55:50;101253.05;;;23.99;31.08
27304;BME280;14791;52.392;13.092;2023-05-22T02:58:19;101257.34;;;23.97;31.08
27304;BME280;14791;52.392;13.092;2023-05-22T03:00:51;101250.86;;;23.94;31.11
27304;BME280;14791;52.392;13.092;2023-05-22T03:03:20;101248.81;;;23.92;31.12
27304;BME280;14791;52.392;13.092;2023-05-22T03:05:51;101243.00;;;23.91;31.13
27304;BME280;14791;52.392;13.092;2023-05-22T03:08:21;101245.03;;;23.89;31.15
27304;BME280;14791;52.392;13.092;2023-05-22T03:10:50;101244.38;;;23.87;31.17
27304;BME280;14791;52.392;13.092;2023-05-22T03:13:19;101240.61;;;23.84;31.20
27304;BME280;14791;52.392;13.092;2023-05-22T03:15:48;101242.16;;;23.83;31.23
27304;BME280;14791;52.392;13.092;2023-05-22T03:18:17;101246.08;;;23.80;31.28
27304;BME280;14791;52.392;13.092;2023-05-22T03:20:47;101245.03;;;23.77;31.31
27304;BME280;14791;52.392;13.092;2023-05-22T03:23:16;101236.68;;;23.74;31.41
27304;BME280;14791;52.392;13.092;2023-05-22T03:25:46;101239.56;;;23.73;31.38
27304;BME280;14791;52.392;13.092;2023-05-22T03:28:15;101246.17;;;23.70;31.49
27304;BME280;14791;52.392;13.092;2023-05-22T03:30:44;101241.42;;;23.68;31.52
27304;BME280;14791;52.392;13.092;2023-05-22T03:33:19;101241.91;;;23.68;31.54
27304;BME280;14791;52.392;13.092;2023-05-22T03:35:48;101247.37;;;23.68;31.60
27304;BME280;14791;52.392;13.092;2023-05-22T03:38:17;101237.83;;;23.68;31.62
27304;BME280;14791;52.392;13.092;2023-05-22T03:40:46;101245.52;;;23.68;31.66
27304;BME280;14791;52.392;13.092;2023-05-22T03:43:15;101246.37;;;23.69;31.69
27304;BME280;14791;52.392;13.092;2023-05-22T03:45:44;101246.17;;;23.70;31.73
27304;BME280;14791;52.392;13.092;2023-05-22T03:48:13;101241.92;;;23.72;31.74
27304;BME280;14791;52.392;13.092;2023-05-22T03:50:42;101245.70;;;23.75;31.77
27304;BME280;14791;52.392;13.092;2023-05-22T03:53:12;101248.60;;;23.77;31.80
27304;BME280;14791;52.392;13.092;2023-05-22T03:55:41;101239.59;;;23.81;31.83
27304;BME280;14791;52.392;13.092;2023-05-22T03:58:10;101243.00;;;23.83;31.78
27304;BME280;14791;52.392;13.092;2023-05-22T04:00:39;101242.83;;;23.89;31.80
27304;BME280;14791;52.392;13.092;2023-05-22T04:03:09;101245.73;;;23.91;31.80
27304;BME280;14791;52.392;13.092;2023-05-22T04:05:39;101242.68;;;23.94;31.79
27304;BME280;14791;52.392;13.092;2023-05-22T04:08:10;101237.72;;;23.98;31.79
27304;BME280;14791;52.392;13.092;2023-05-22T04:10:39;101238.25;;;24.02;31.83
27304;BME280;14791;52.392;13.092;2023-05-22T04:13:09;101242.32;;;24.06;31.84
27304;BME280;14791;52.392;13.092;2023-05-22T04:15:40;101233.63;;;24.10;31.77
27304;BME280;14791;52.392;13.092;2023-05-22T04:18:10;101239.77;;;24.12;31.77
27304;BME280;14791;52.392;13.092;2023-05-22T04:20:41;101236.52;;;24.17;31.77
27304;BME280;14791;52.392;13.092;2023-05-22T04:23:10;101235.17;;;24.21;31.76
27304;BME280;14791;52.392;13.092;2023-05-22T04:25:39;101239.08;;;24.27;31.70
27304;BME280;14791;52.392;13.092;2023-05-22T04:28:08;101238.56;;;24.31;31.69
27304;BME280;14791;52.392;13.092;2023-05-22T04:30:37;101237.20;;;24.35;31.73
27304;BME280;14791;52.392;13.092;2023-05-22T04:33:06;101233.95;;;24.40;31.67
27304;BME280;14791;52.392;13.092;2023-05-22T04:35:35;101239.73;;;24.45;31.67
27304;BME280;14791;52.392;13.092;2023-05-22T04:38:04;101237.89;;;24.50;31.67
27304;BME280;14791;52.392;13.092;2023-05-22T04:40:33;101235.12;;;24.54;31.70
27304;BME280;14791;52.392;13.092;2023-05-22T04:43:04;101237.17;;;24.60;31.71
27304;BME280;14791;52.392;13.092;2023-05-22T04:45:34;101243.64;;;24.67;31.69
27304;BME280;14791;52.392;13.092;2023-05-22T04:48:03;101243.97;;;24.72;31.58
27304;BME280;14791;52.392;13.092;2023-05-22T04:50:34;101238.30;;;24.78;31.56
27304;BME280;14791;52.392;13.092;2023-05-22T04:53:05;101239.14;;;24.82;31.53
27304;BME280;14791;52.392;13.092;2023-05-22T04:55:34;101238.62;;;24.87;31.49
27304;BME280;14791;52.392;13.092;2023-05-22T04:58:03;101232.30;;;24.91;31.44
27304;BME280;14791;52.392;13.092;2023-05-22T05:00:33;101228.36;;;24.93;31.42
27304;BME280;14791;52.392;13.092;2023-05-22T05:03:03;101233.98;;;24.96;31.35
27304;BME280;14791;52.392;13.092;2023-05-22T05:05:33;101230.21;;;24.97;31.41
27304;BME280;14791;52.392;13.092;2023-05-22T05:08:03;101226.48;;;24.94;31.45
27304;BME280;14791;52.392;13.092;2023-05-22T05:10:32;101227.32;;;24.94;31.46
27304;BME280;14791;52.392;13.092;2023-05-22T05:13:02;101226.16;;;24.93;31.50
27304;BME280;14791;52.392;13.092;2023-05-22T05:15:32;101227.16;;;24.92;31.50
27304;BME280;14791;52.392;13.092;2023-05-22T05:18:02;101227.36;;;24.90;31.52
27304;BME280;14791;52.392;13.092;2023-05-22T05:20:31;101224.44;;;24.88;31.56
27304;BME280;14791;52.392;13.092;2023-05-22T05:23:00;101228.21;;;24.87;31.58
27304;BME280;14791;52.392;13.092;2023-05-22T05:25:29;101232.47;;;24.85;31.65
27304;BME280;14791;52.392;13.092;2023-05-22T05:27:58;101229.94;;;24.83;31.68
27304;BME280;14791;52.392;13.092;2023-05-22T05:30:27;101225.68;;;24.81;31.72
27304;BME280;14791;52.392;13.092;2023-05-22T05:33:12;101229.63;;;24.78;31.74
27304;BME280;14791;52.392;13.092;2023-05-22T05:35:59;101233.72;;;24.74;31.87
27304;BME280;14791;52.392;13.092;2023-05-22T05:38:28;101234.77;;;24.69;31.92
27304;BME280;14791;52.392;13.092;2023-05-22T05:40:57;101239.19;;;24.66;31.95
27304;BME280;14791;52.392;13.092;2023-05-22T05:43:27;101241.59;;;24.65;32.06
27304;BME280;14791;52.392;13.092;2023-05-22T05:45:58;101240.23;;;24.65;32.10
27304;BME280;14791;52.392;13.092;2023-05-22T05:48:27;101239.91;;;24.64;32.18
27304;BME280;14791;52.392;13.092;2023-05-22T05:50:57;101238.34;;;24.66;32.20
27304;BME280;14791;52.392;13.092;2023-05-22T05:53:27;101243.64;;;24.67;32.32
27304;BME280;14791;52.392;13.092;2023-05-22T05:55:58;101239.70;;;24.70;32.34
27304;BME280;14791;52.392;13.092;2023-05-22T05:58:29;101238.34;;;24.74;32.34
27304;BME280;14791;52.392;13.092;2023-05-22T06:01:11;101239.67;;;24.78;32.42
27304;BME280;14791;52.392;13.092;2023-05-22T06:03:42;101243.44;;;24.81;32.48
27304;BME280;14791;52.392;13.092;2023-05-22T06:06:12;101241.55;;;24.86;32.40
27304;BME280;14791;52.392;13.092;2023-05-22T06:08:46;101236.73;;;24.92;32.34
27304;BME280;14791;52.392;13.092;2023-05-22T06:11:16;101234.67;;;24.98;32.42
27304;BME280;14791;52.392;13.092;2023-05-22T06:13:54;101232.57;;;25.04;32.44
27304;BME280;14791;52.392;13.092;2023-05-22T06:16:24;101232.40;;;25.10;32.36
27304;BME280;14791;52.392;13.092;2023-05-22T06:18:53;101230.16;;;25.17;32.44
27304;BME280;14791;52.392;13.092;2023-05-22T06:21:24;101229.79;;;25.24;32.45
27304;BME280;14791;52.392;13.092;2023-05-22T06:23:53;101239.12;;;25.34;32.43
27304;BME280;14791;52.392;13.092;2023-05-22T06:26:22;101233.80;;;25.41;32.38
27304;BME280;14791;52.392;13.092;2023-05-22T06:28:52;101235.11;;;25.49;32.39
27304;BME280;14791;52.392;13.092;2023-05-22T06:31:21;101234.03;;;25.58;32.35
27304;BME280;14791;52.392;13.092;2023-05-22T06:33:51;101239.78;;;25.67;32.25
27304;BME280;14791;52.392;13.092;2023-05-22T06:36:20;101236.13;;;25.75;32.18
27304;BME280;14791;52.392;13.092;2023-05-22T06:38:51;101237.42;;;25.83;32.15
27304;BME280;14791;52.392;13.092;2023-05-22T06:41:23;101230.05;;;25.92;32.18
27304;BME280;14791;52.392;13.092;2023-05-22T06:43:53;101232.73;;;26.00;32.22
27304;BME280;14791;52.392;13.092;2023-05-22T06:46:23;101239.81;;;26.09;32.13
27304;BME280;14791;52.392;13.092;2023-05-22T06:48:54;101231.19;;;26.17;32.02
27304;BME280;14791;52.392;13.092;2023-05-22T06:51:25;101234.19;;;26.26;31.92
27304;BME280;14791;52.392;13.092;2023-05-22T06:53:55;101236.20;;;26.32;31.88
27304;BME280;14791;52.392;13.092;2023-05-22T06:56:26;101232.55;;;26.36;31.86
27304;BME280;14791;52.392;13.092;2023-05-22T06:58:57;101237.47;;;26.40;31.78
27304;BME280;14791;52.392;13.092;2023-05-22T07:01:27;101233.33;;;26.44;31.78
27304;BME280;14791;52.392;13.092;2023-05-22T07:03:58;101230.56;;;26.48;31.78
27304;BME280;14791;52.392;13.092;2023-05-22T07:06:31;101228.28;;;26.52;31.74
27304;BME280;14791;52.392;13.092;2023-05-22T07:09:00;101233.77;;;26.56;31.65
27304;BME280;14791;52.392;13.092;2023-05-22T07:11:30;101233.72;;;26.60;31.70
27304;BME280;14791;52.392;13.092;2023-05-22T07:14:00;101231.05;;;26.67;31.69
27304;BME280;14791;52.392;13.092;2023-05-22T07:16:30;101231.16;;;26.73;31.72
27304;BME280;14791;52.392;13.092;2023-05-22T07:18:59;101235.37;;;26.80;31.71
27304;BME280;14791;52.392;13.092;2023-05-22T07:21:29;101231.85;;;26.86;31.71
27304;BME280;14791;52.392;13.092;2023-05-22T07:23:59;101234.52;;;26.94;31.56
27304;BME280;14791;52.392;13.092;2023-05-22T07:26:29;101234.40;;;27.03;31.62
27304;BME280;14791;52.392;13.092;2023-05-22T07:29:00;101232.59;;;27.10;31.57
27304;BME280;14791;52.392;13.092;2023-05-22T07:31:30;101230.26;;;27.18;31.46
27304;BME280;14791;52.392;13.092;2023-05-22T07:34:01;101228.48;;;27.25;31.40
27304;BME280;14791;52.392;13.092;2023-05-22T07:36:30;101235.42;;;27.31;31.46
27304;BME280;14791;52.392;13.092;2023-05-22T07:39:02;101237.06;;;27.36;31.38
27304;BME280;14791;52.392;13.092;2023-05-22T07:41:33;101238.73;;;27.42;31.34
27304;BME280;14791;52.392;13.092;2023-05-22T07:44:03;101230.41;;;27.46;31.31
27304;BME280;14791;52.392;13.092;2023-05-22T07:46:33;101233.82;;;27.48;31.29
27304;BME280;14791;52.392;13.092;2023-05-22T07:49:08;101228.99;;;27.50;31.30
27304;BME280;14791;52.392;13.092;2023-05-22T07:51:39;101234.80;;;27.51;31.31
27304;BME280;14791;52.392;13.092;2023-05-22T07:54:08;101230.31;;;27.54;31.36
27304;BME280;14791;52.392;13.092;2023-05-22T07:56:40;101232.27;;;27.60;31.36
27304;BME280;14791;52.392;13.092;2023-05-22T07:59:10;101229.78;;;27.65;31.37
27304;BME280;14791;52.392;13.092;2023-05-22T08:01:39;101230.38;;;27.71;31.33
27304;BME280;14791;52.392;13.092;2023-05-22T08:04:11;101225.15;;;27.76;31.30
27304;BME280;14791;52.392;13.092;2023-05-22T08:06:40;101223.35;;;27.84;31.32
27304;BME280;14791;52.392;13.092;2023-05-22T08:09:11;101219.61;;;27.91;31.26
27304;BME280;14791;52.392;13.092;2023-05-22T08:11:40;101227.52;;;28.01;31.19
27304;BME280;14791;52.392;13.092;2023-05-22T08:14:09;101224.95;;;28.10;31.16
27304;BME280;14791;52.392;13.092;2023-05-22T08:16:38;101215.84;;;28.20;31.11
27304;BME280;14791;52.392;13.092;2023-05-22T08:19:07;101221.14;;;28.33;31.00
27304;BME280;14791;52.392;13.092;2023-05-22T08:21:36;101214.04;;;28.45;30.95
27304;BME280;14791;52.392;13.092;2023-05-22T08:24:06;101216.23;;;28.56;30.92
27304;BME280;14791;52.392;13.092;2023-05-22T08:26:36;101215.37;;;28.67;30.82
27304;BME280;14791;52.392;13.092;2023-05-22T08:29:06;101211.06;;;28.75;30.76
27304;BME280;14791;52.392;13.092;2023-05-22T08:31:35;101214.28;;;28.85;30.71
27304;BME280;14791;52.392;13.092;2023-05-22T08:34:03;101205.88;;;28.93;30.69
27304;BME280;14791;52.392;13.092;2023-05-22T08:36:33;101208.14;;;29.00;30.61
27304;BME280;14791;52.392;13.092;2023-05-22T08:39:02;101205.88;;;29.11;30.50
27304;BME280;14791;52.392;13.092;2023-05-22T08:41:33;101210.03;;;29.17;30.42
27304;BME280;14791;52.392;13.092;2023-05-22T08:44:02;101203.49;;;29.25;30.43
27304;BME280;14791;52.392;13.092;2023-05-22T08:46:31;101208.48;;;29.32;30.34
27304;BME280;14791;52.392;13.092;2023-05-22T08:49:04;101209.55;;;29.38;30.23
27304;BME280;14791;52.392;13.092;2023-05-22T08:51:36;101211.59;;;29.46;30.21
27304;BME280;14791;52.392;13.092;2023-05-22T08:54:08;101200.19;;;29.56;30.08
27304;BME280;14791;52.392;13.092;2023-05-22T08:56:37;101197.02;;;29.66;30.08
27304;BME280;14791;52.392;13.092;2023-05-22T08:59:07;101191.23;;;29.78;30.01
27304;BME280;14791;52.392;13.092;2023-05-22T09:01:37;101189.88;;;29.92;29.88
27304;BME280;14791;52.392;13.092;2023-05-22T09:04:06;101186.06;;;30.06;29.92
27304;BME280;14791;52.392;13.092;2023-05-22T09:06:35;101183.28;;;30.19;29.75
27304;BME280;14791;52.392;13.092;2023-05-22T09:09:05;101179.81;;;30.35;29.67
27304;BME280;14791;52.392;13.092;2023-05-22T09:11:34;101184.23;;;30.49;29.53
27304;BME280;14791;52.392;13.092;2023-05-22T09:14:10;101186.94;;;30.62;29.23
27304;BME280;14791;52.392;13.092;2023-05-22T09:16:46;101187.56;;;30.71;28.95
27304;BME280;14791;52.392;13.092;2023-05-22T09:19:15;101183.41;;;30.78;28.73
27304;BME280;14791;52.392;13.092;2023-05-22T09:21:44;101177.45;;;30.81;28.57
27304;BME280;14791;52.392;13.092;2023-05-22T09:24:14;101175.99;;;30.85;28.67
27304;BME280;14791;52.392;13.092;2023-05-22T09:26:43;101173.88;;;30.87;28.45
27304;BME280;14791;52.392;13.092;2023-05-22T09:29:12;101169.59;;;30.91;28.29
27304;BME280;14791;52.392;13.092;2023-05-22T09:31:42;101167.05;;;30.96;28.38
27304;BME280;14791;52.392;13.092;2023-05-22T09:34:12;101163.09;;;31.01;28.19
27304;BME280;14791;52.392;13.092;2023-05-22T09:36:41;101163.16;;;31.10;28.34
27304;BME280;14791;52.392;13.092;2023-05-22T09:39:11;101164.14;;;31.23;28.14
27304;BME280;14791;52.392;13.092;2023-05-22T09:41:40;101162.13;;;31.36;28.03
27304;BME280;14791;52.392;13.092;2023-05-22T09:44:13;101165.23;;;31.53;28.22
27304;BME280;14791;52.392;13.092;2023-05-22T09:46:45;101153.14;;;31.70;27.95
27304;BME280;14791;52.392;13.092;2023-05-22T09:49:15;101163.09;;;31.87;27.38
27304;BME280;14791;52.392;13.092;2023-05-22T09:51:45;101154.69;;;32.00;27.17
27304;BME280;14791;52.392;13.092;2023-05-22T09:54:15;101166.06;;;32.11;26.70
27304;BME280;14791;52.392;13.092;2023-05-22T09:56:47;101161.32;;;32.18;26.76
27304;BME280;14791;52.392;13.092;2023-05-22T09:59:19;101158.50;;;32.25;26.46
27304;BME280;14791;52.392;13.092;2023-05-22T10:01:50;101158.58;;;32.27;26.32
27304;BME280;14791;52.392;13.092;2023-05-22T10:04:21;101152.28;;;32.29;26.04
27304;BME280;14791;52.392;13.092;2023-05-22T10:06:52;101150.06;;;32.29;25.91
27304;BME280;14791;52.392;13.092;2023-05-22T10:09:24;101146.76;;;32.29;26.15
27304;BME280;14791;52.392;13.092;2023-05-22T10:11:57;101145.37;;;32.29;26.10
27304;BME280;14791;52.392;13.092;2023-05-22T10:14:27;101147.92;;;32.31;26.53
27304;BME280;14791;52.392;13.092;2023-05-22T10:16:57;101142.69;;;32.32;26.22
27304;BME280;14791;52.392;13.092;2023-05-22T10:19:29;101140.08;;;32.37;25.86
27304;BME280;14791;52.392;13.092;2023-05-22T10:22:00;101139.39;;;32.41;25.93
27304;BME280;14791;52.392;13.092;2023-05-22T10:24:30;101142.31;;;32.47;25.73
27304;BME280;14791;52.392;13.092;2023-05-22T10:26:59;101146.82;;;32.57;25.67
27304;BME280;14791;52.392;13.092;2023-05-22T10:29:32;101137.03;;;32.63;25.76
27304;BME280;14791;52.392;13.092;2023-05-22T10:34:52;101128.11;;;32.80;25.40
27304;BME280;14791;52.392;13.092;2023-05-22T10:37:36;101145.17;;;32.86;25.34
27304;BME280;14791;52.392;13.092;2023-05-22T10:40:16;101134.80;;;32.91;25.15
27304;BME280;14791;52.392;13.092;2023-05-22T10:42:39;101129.11;;;32.95;25.26
27304;BME280;14791;52.392;13.092;2023-05-22T10:45:10;101129.54;;;33.01;25.15
27304;BME280;14791;52.392;13.092;2023-05-22T10:47:39;101129.01;;;33.11;25.04
27304;BME280;14791;52.392;13.092;2023-05-22T10:50:09;101128.77;;;33.21;25.02
27304;BME280;14791;52.392;13.092;2023-05-22T10:52:39;101121.01;;;33.33;24.85
27304;BME280;14791;52.392;13.092;2023-05-22T10:55:08;101118.21;;;33.42;24.76
27304;BME280;14791;52.392;13.092;2023-05-22T10:57:38;101117.41;;;33.53;24.60
27304;BME280;14791;52.392;13.092;2023-05-22T11:00:09;101109.69;;;33.64;24.60
27304;BME280;14791;52.392;13.092;2023-05-22T11:02:43;101101.30;;;33.74;24.43
27304;BME280;14791;52.392;13.092;2023-05-22T11:07:59;101107.23;;;33.89;24.10
27304;BME280;14791;52.392;13.092;2023-05-22T11:10:26;101111.22;;;33.93;24.05
27304;BME280;14791;52.392;13.092;2023-05-22T11:13:12;101102.41;;;33.96;23.93
27304;BME280;14791;52.392;13.092;2023-05-22T11:15:47;101100.86;;;34.00;23.77
27304;BME280;14791;52.392;13.092;2023-05-22T11:18:16;101102.53;;;34.01;24.00
27304;BME280;14791;52.392;13.092;2023-05-22T11:20:46;101095.66;;;34.04;23.66
27304;BME280;14791;52.392;13.092;2023-05-22T11:23:16;101097.51;;;34.10;23.93
27304;BME280;14791;52.392;13.092;2023-05-22T11:25:46;101093.69;;;34.14;23.54
27304;BME280;14791;52.392;13.092;2023-05-22T11:28:15;101088.25;;;34.19;23.41
27304;BME280;14791;52.392;13.092;2023-05-22T11:30:45;101086.41;;;34.22;23.23
27304;BME280;14791;52.392;13.092;2023-05-22T11:33:15;101085.31;;;34.23;23.11
27304;BME280;14791;52.392;13.092;2023-05-22T11:35:47;101088.68;;;34.25;22.97
27304;BME280;14791;52.392;13.092;2023-05-22T11:38:18;101080.36;;;34.25;22.87
27304;BME280;14791;52.392;13.092;2023-05-22T11:40:50;101076.20;;;34.25;22.85
27304;BME280;14791;52.392;13.092;2023-05-22T11:43:29;101080.36;;;34.25;22.78
27304;BME280;14791;52.392;13.092;2023-05-22T11:46:05;101080.36;;;34.25;22.96
27304;BME280;14791;52.392;13.092;2023-05-22T11:48:34;101078.43;;;34.25;23.00
27304;BME280;14791;52.392;13.092;2023-05-22T11:51:04;101080.10;;;34.26;22.98
27304;BME280;14791;52.392;13.092;2023-05-22T11:53:33;101077.41;;;34.29;22.91
27304;BME280;14791;52.392;13.092;2023-05-22T11:56:04;101078.04;;;34.34;22.82
27304;BME280;14791;52.392;13.092;2023-05-22T11:58:33;101081.47;;;34.38;22.87
27304;BME280;14791;52.392;13.092;2023-05-22T12:01:03;101076.89;;;34.44;22.65
27304;BME280;14791;52.392;13.092;2023-05-22T12:03:32;101072.75;;;34.58;22.47
27304;BME280;14791;52.392;13.092;2023-05-22T12:06:02;101070.99;;;34.81;22.39
27304;BME280;14791;52.392;13.092;2023-05-22T12:08:31;101064.27;;;35.08;22.22
27304;BME280;14791;52.392;13.092;2023-05-22T12:11:03;101063.25;;;35.43;21.91
27304;BME280;14791;52.392;13.092;2023-05-22T12:13:30;101064.23;;;35.85;21.79
27304;BME280;14791;52.392;13.092;2023-05-22T12:15:59;101053.46;;;36.30;21.38
27304;BME280;14791;52.392;13.092;2023-05-22T12:18:37;101059.61;;;36.76;21.33
27304;BME280;14791;52.392;13.092;2023-05-22T12:21:07;101060.63;;;37.19;20.92
27304;BME280;14791;52.392;13.092;2023-05-22T12:23:46;101051.23;;;37.60;20.75
27304;BME280;14791;52.392;13.092;2023-05-22T12:26:11;101056.80;;;38.00;20.10
27304;BME280;14791;52.392;13.092;2023-05-22T12:28:40;101051.95;;;38.38;19.91
27304;BME280;14791;52.392;13.092;2023-05-22T12:31:08;101057.98;;;38.82;19.90
27304;BME280;14791;52.392;13.092;2023-05-22T12:33:39;101060.28;;;39.29;19.37
27304;BME280;14791;52.392;13.092;2023-05-22T12:36:08;101051.03;;;39.80;19.10
27304;BME280;14791;52.392;13.092;2023-05-22T12:38:37;101056.55;;;40.28;18.88
27304;BME280;14791;52.392;13.092;2023-05-22T12:41:09;101062.48;;;40.76;18.53
27304;BME280;14791;52.392;13.092;2023-05-22T12:43:38;101063.00;;;41.23;18.17
27304;BME280;14791;52.392;13.092;2023-05-22T12:46:07;101055.02;;;41.72;17.88
27304;BME280;14791;52.392;13.092;2023-05-22T12:48:35;101051.38;;;42.22;17.50
27304;BME280;14791;52.392;13.092;2023-05-22T12:51:04;101046.19;;;42.75;16.94
27304;BME280;14791;52.392;13.092;2023-05-22T12:53:35;101048.74;;;43.28;16.55
27304;BME280;14791;52.392;13.092;2023-05-22T12:56:04;101054.84;;;43.80;16.18
27304;BME280;14791;52.392;13.092;2023-05-22T12:58:33;101045.70;;;44.29;15.78
27304;BME280;14791;52.392;13.092;2023-05-22T13:01:02;101046.94;;;44.76;15.89
27304;BME280;14791;52.392;13.092;2023-05-22T13:03:31;101047.91;;;45.19;15.26
27304;BME280;14791;52.392;13.092;2023-05-22T13:06:00;101038.63;;;45.61;15.08
27304;BME280;14791;52.392;13.092;2023-05-22T13:08:29;101042.07;;;46.00;15.01
27304;BME280;14791;52.392;13.092;2023-05-22T13:10:59;101037.84;;;46.38;15.34
27304;BME280;14791;52.392;13.092;2023-05-22T13:13:28;101031.97;;;46.72;14.37
27304;BME280;14791;52.392;13.092;2023-05-22T13:15:57;101029.58;;;47.02;13.96
27304;BME280;14791;52.392;13.092;2023-05-22T13:18:26;101038.13;;;47.26;13.49
27304;BME280;14791;52.392;13.092;2023-05-22T13:20:55;101036.61;;;47.37;13.60